sensor_id;sensor_type;location;lat;lon;timestamp;P1;durP1;ratioP1;P2;durP2;ratioP2
61477;SDS011;47345;52.334;10.392;2022-11-15T00:00:22;9.10;;;5.50;;
61477;SDS011;47345;52.334;10.392;2022-11-15T00:02:53;9.70;;;6.10;;
61477;SDS011;47345;52.334;10.392;2022-11-15T00:05:24;11.40;;;5.40;;
61477;SDS011;47345;52.334;10.392;2022-11-15T00:07:54;9.20;;;5.60;;
61477;SDS011;47345;52.334;10.392;2022-11-15T00:10:27;11.30;;;5.80;;
61477;SDS011;47345;52.334;10.392;2022-11-15T00:12:57;9.90;;;5.20;;
61477;SDS011;47345;52.334;10.392;2022-11-15T00:15:28;7.20;;;5.20;;
61477;SDS011;47345;52.334;10.392;2022-11-15T00:17:58;8.60;;;5.10;;
61477;SDS011;47345;52.334;10.392;2022-11-15T00:20:29;9.90;;;5.60;;
61477;SDS011;47345;52.334;10.392;2022-11-15T00:22:59;8.60;;;5.50;;
61477;SDS011;47345;52.334;10.392;2022-11-15T00:25:31;10.20;;;5.80;;
61477;SDS011;47345;52.334;10.392;2022-11-15T00:28:02;9.80;;;5.70;;
61477;SDS011;47345;52.334;10.392;2022-11-15T00:30:33;12.00;;;6.90;;
61477;SDS011;47345;52.334;10.392;2022-11-15T00:33:04;9.20;;;6.10;;
61477;SDS011;47345;52.334;10.392;2022-11-15T00:35:35;8.90;;;5.60;;
61477;SDS011;47345;52.334;10.392;2022-11-15T00:38:05;10.40;;;5.90;;
61477;SDS011;47345;52.334;10.392;2022-11-15T00:40:36;11.80;;;6.00;;
61477;SDS011;47345;52.334;10.392;2022-11-15T00:43:07;8.90;;;5.70;;
61477;SDS011;47345;52.334;10.392;2022-11-15T00:45:37;8.40;;;5.60;;
61477;SDS011;47345;52.334;10.392;2022-11-15T00:48:08;10.50;;;6.30;;
61477;SDS011;47345;52.334;10.392;2022-11-15T00:50:40;9.00;;;5.70;;
61477;SDS011;47345;52.334;10.392;2022-11-15T00:53:11;10.10;;;5.70;;
61477;SDS011;47345;52.334;10.392;2022-11-15T00:55:41;9.50;;;5.90;;
61477;SDS011;47345;52.334;10.392;2022-11-15T00:58:12;8.30;;;5.40;;
61477;SDS011;47345;52.334;10.392;2022-11-15T01:00:42;10.70;;;6.40;;
61477;SDS011;47345;52.334;10.392;2022-11-15T01:03:13;9.60;;;5.70;;
61477;SDS011;47345;52.334;10.392;2022-11-15T01:05:43;8.60;;;5.00;;
61477;SDS011;47345;52.334;10.392;2022-11-15T01:08:15;8.30;;;5.20;;
61477;SDS011;47345;52.334;10.392;2022-11-15T01:10:45;8.20;;;5.60;;
61477;SDS011;47345;52.334;10.392;2022-11-15T01:13:16;9.70;;;6.00;;
61477;SDS011;47345;52.334;10.392;2022-11-15T01:15:46;8.00;;;5.60;;
61477;SDS011;47345;52.334;10.392;2022-11-15T01:18:17;10.00;;;6.20;;
61477;SDS011;47345;52.334;10.392;2022-11-15T01:20:47;9.60;;;6.10;;
61477;SDS011;47345;52.334;10.392;2022-11-15T01:23:18;10.20;;;6.10;;
61477;SDS011;47345;52.334;10.392;2022-11-15T01:25:49;8.70;;;5.60;;
61477;SDS011;47345;52.334;10.392;2022-11-15T01:28:19;9.30;;;5.90;;
61477;SDS011;47345;52.334;10.392;2022-11-15T01:30:50;10.30;;;5.40;;
61477;SDS011;47345;52.334;10.392;2022-11-15T01:33:21;8.30;;;5.90;;
61477;SDS011;47345;52.334;10.392;2022-11-15T01:35:52;7.30;;;5.50;;
61477;SDS011;47345;52.334;10.392;2022-11-15T01:38:22;8.50;;;5.80;;
61477;SDS011;47345;52.334;10.392;2022-11-15T01:40:53;10.10;;;6.40;;
61477;SDS011;47345;52.334;10.392;2022-11-15T01:43:24;7.90;;;4.90;;
61477;SDS011;47345;52.334;10.392;2022-11-15T01:45:58;7.50;;;5.00;;
61477;SDS011;47345;52.334;10.392;2022-11-15T01:48:33;9.30;;;6.00;;
61477;SDS011;47345;52.334;10.392;2022-11-15T01:51:07;8.20;;;5.20;;
61477;SDS011;47345;52.334;10.392;2022-11-15T01:53:40;7.40;;;4.90;;
61477;SDS011;47345;52.334;10.392;2022-11-15T01:56:15;9.00;;;5.40;;
61477;SDS011;47345;52.334;10.392;2022-11-15T01:58:50;9.90;;;5.70;;
61477;SDS011;47345;52.334;10.392;2022-11-15T02:01:21;9.20;;;5.50;;
61477;SDS011;47345;52.334;10.392;2022-11-15T02:03:56;7.70;;;5.10;;
61477;SDS011;47345;52.334;10.392;2022-11-15T02:06:29;8.20;;;5.40;;
61477;SDS011;47345;52.334;10.392;2022-11-15T02:09:01;7.90;;;5.30;;
61477;SDS011;47345;52.334;10.392;2022-11-15T02:11:32;7.90;;;5.20;;
61477;SDS011;47345;52.334;10.392;2022-11-15T02:14:04;8.70;;;5.80;;
61477;SDS011;47345;52.334;10.392;2022-11-15T02:16:48;9.30;;;5.40;;
61477;SDS011;47345;52.334;10.392;2022-11-15T02:19:36;7.10;;;4.30;;
61477;SDS011;47345;52.334;10.392;2022-11-15T02:22:27;6.10;;;4.40;;
61477;SDS011;47345;52.334;10.392;2022-11-15T02:25:11;11.30;;;5.20;;
61477;SDS011;47345;52.334;10.392;2022-11-15T02:28:06;9.00;;;5.30;;
61477;SDS011;47345;52.334;10.392;2022-11-15T02:30:45;8.00;;;5.20;;
61477;SDS011;47345;52.334;10.392;2022-11-15T02:33:28;8.50;;;5.40;;
61477;SDS011;47345;52.334;10.392;2022-11-15T02:36:09;9.20;;;6.00;;
61477;SDS011;47345;52.334;10.392;2022-11-15T02:38:45;9.10;;;6.20;;
61477;SDS011;47345;52.334;10.392;2022-11-15T02:41:24;9.10;;;6.50;;
61477;SDS011;47345;52.334;10.392;2022-11-15T02:44:00;9.90;;;6.10;;
61477;SDS011;47345;52.334;10.392;2022-11-15T02:46:37;9.20;;;5.70;;
61477;SDS011;47345;52.334;10.392;2022-11-15T02:49:29;9.10;;;6.10;;
61477;SDS011;47345;52.334;10.392;2022-11-15T02:52:03;8.00;;;5.60;;
61477;SDS011;47345;52.334;10.392;2022-11-15T02:54:34;6.80;;;5.10;;
61477;SDS011;47345;52.334;10.392;2022-11-15T02:57:05;9.00;;;5.20;;
61477;SDS011;47345;52.334;10.392;2022-11-15T03:05:35;10.00;;;6.20;;
61477;SDS011;47345;52.334;10.392;2022-11-15T03:08:10;9.80;;;5.50;;
61477;SDS011;47345;52.334;10.392;2022-11-15T03:10:49;9.30;;;5.80;;
61477;SDS011;47345;52.334;10.392;2022-11-15T03:13:30;7.80;;;5.10;;
61477;SDS011;47345;52.334;10.392;2022-11-15T03:18:38;7.70;;;5.40;;
61477;SDS011;47345;52.334;10.392;2022-11-15T03:21:14;7.80;;;5.10;;
61477;SDS011;47345;52.334;10.392;2022-11-15T03:23:48;8.50;;;5.20;;
61477;SDS011;47345;52.334;10.392;2022-11-15T03:26:21;5.80;;;4.40;;
61477;SDS011;47345;52.334;10.392;2022-11-15T03:28:55;9.00;;;4.40;;
61477;SDS011;47345;52.334;10.392;2022-11-15T03:31:30;7.30;;;4.90;;
61477;SDS011;47345;52.334;10.392;2022-11-15T03:34:22;6.40;;;4.50;;
61477;SDS011;47345;52.334;10.392;2022-11-15T03:37:00;6.70;;;4.80;;
61477;SDS011;47345;52.334;10.392;2022-11-15T03:39:31;9.80;;;5.00;;
61477;SDS011;47345;52.334;10.392;2022-11-15T03:42:06;7.60;;;5.10;;
61477;SDS011;47345;52.334;10.392;2022-11-15T03:44:49;15.30;;;5.30;;
61477;SDS011;47345;52.334;10.392;2022-11-15T03:47:29;7.30;;;5.30;;
61477;SDS011;47345;52.334;10.392;2022-11-15T03:50:04;8.10;;;4.90;;
61477;SDS011;47345;52.334;10.392;2022-11-15T03:52:40;7.40;;;4.90;;
61477;SDS011;47345;52.334;10.392;2022-11-15T03:55:15;7.50;;;5.00;;
61477;SDS011;47345;52.334;10.392;2022-11-15T03:57:47;5.80;;;4.50;;
61477;SDS011;47345;52.334;10.392;2022-11-15T04:00:20;7.00;;;4.50;;
61477;SDS011;47345;52.334;10.392;2022-11-15T04:02:50;7.40;;;5.60;;
61477;SDS011;47345;52.334;10.392;2022-11-15T04:05:21;6.80;;;4.50;;
61477;SDS011;47345;52.334;10.392;2022-11-15T04:07:51;10.00;;;5.80;;
61477;SDS011;47345;52.334;10.392;2022-11-15T04:10:22;6.90;;;4.80;;
61477;SDS011;47345;52.334;10.392;2022-11-15T04:12:52;5.90;;;4.20;;
61477;SDS011;47345;52.334;10.392;2022-11-15T04:15:23;8.00;;;4.40;;
61477;SDS011;47345;52.334;10.392;2022-11-15T04:17:54;7.00;;;4.60;;
61477;SDS011;47345;52.334;10.392;2022-11-15T04:20:26;6.50;;;4.30;;
61477;SDS011;47345;52.334;10.392;2022-11-15T04:23:16;6.90;;;4.30;;
61477;SDS011;47345;52.334;10.392;2022-11-15T04:26:06;8.30;;;5.10;;
61477;SDS011;47345;52.334;10.392;2022-11-15T04:28:38;7.10;;;4.70;;
61477;SDS011;47345;52.334;10.392;2022-11-15T04:31:23;7.30;;;4.30;;
61477;SDS011;47345;52.334;10.392;2022-11-15T04:33:53;7.60;;;4.70;;
61477;SDS011;47345;52.334;10.392;2022-11-15T04:36:24;7.20;;;4.90;;
61477;SDS011;47345;52.334;10.392;2022-11-15T04:39:08;8.20;;;5.10;;
61477;SDS011;47345;52.334;10.392;2022-11-15T04:41:39;7.80;;;5.40;;
61477;SDS011;47345;52.334;10.392;2022-11-15T04:44:09;8.40;;;5.30;;
61477;SDS011;47345;52.334;10.392;2022-11-15T04:46:39;7.10;;;4.40;;
61477;SDS011;47345;52.334;10.392;2022-11-15T04:49:10;8.10;;;4.90;;
61477;SDS011;47345;52.334;10.392;2022-11-15T04:51:40;8.10;;;5.00;;
61477;SDS011;47345;52.334;10.392;2022-11-15T04:54:11;8.80;;;5.30;;
61477;SDS011;47345;52.334;10.392;2022-11-15T04:56:41;7.10;;;5.00;;
61477;SDS011;47345;52.334;10.392;2022-11-15T04:59:12;10.40;;;6.10;;
61477;SDS011;47345;52.334;10.392;2022-11-15T05:01:42;8.20;;;5.20;;
61477;SDS011;47345;52.334;10.392;2022-11-15T05:04:13;8.40;;;5.70;;
61477;SDS011;47345;52.334;10.392;2022-11-15T05:06:50;7.10;;;4.90;;
61477;SDS011;47345;52.334;10.392;2022-11-15T05:09:21;12.10;;;5.80;;
61477;SDS011;47345;52.334;10.392;2022-11-15T05:11:51;8.20;;;6.00;;
61477;SDS011;47345;52.334;10.392;2022-11-15T05:14:22;9.90;;;6.60;;
61477;SDS011;47345;52.334;10.392;2022-11-15T05:16:54;11.50;;;6.60;;
61477;SDS011;47345;52.334;10.392;2022-11-15T05:19:24;9.90;;;6.30;;
61477;SDS011;47345;52.334;10.392;2022-11-15T05:21:55;15.70;;;9.80;;
61477;SDS011;47345;52.334;10.392;2022-11-15T05:24:25;14.70;;;9.30;;
61477;SDS011;47345;52.334;10.392;2022-11-15T05:26:57;10.60;;;6.40;;
61477;SDS011;47345;52.334;10.392;2022-11-15T05:29:27;7.60;;;5.50;;
61477;SDS011;47345;52.334;10.392;2022-11-15T05:31:58;7.50;;;4.80;;
61477;SDS011;47345;52.334;10.392;2022-11-15T05:34:29;11.70;;;6.40;;
61477;SDS011;47345;52.334;10.392;2022-11-15T05:37:00;9.80;;;6.20;;
61477;SDS011;47345;52.334;10.392;2022-11-15T05:39:32;8.90;;;6.00;;
61477;SDS011;47345;52.334;10.392;2022-11-15T05:42:04;8.50;;;6.10;;
61477;SDS011;47345;52.334;10.392;2022-11-15T05:44:38;9.40;;;6.30;;
61477;SDS011;47345;52.334;10.392;2022-11-15T05:47:13;9.00;;;6.10;;
61477;SDS011;47345;52.334;10.392;2022-11-15T05:49:48;6.90;;;4.90;;
61477;SDS011;47345;52.334;10.392;2022-11-15T05:52:22;7.40;;;4.70;;
61477;SDS011;47345;52.334;10.392;2022-11-15T05:54:58;8.10;;;5.30;;
61477;SDS011;47345;52.334;10.392;2022-11-15T05:57:30;5.50;;;4.10;;
61477;SDS011;47345;52.334;10.392;2022-11-15T06:00:02;8.20;;;5.10;;
61477;SDS011;47345;52.334;10.392;2022-11-15T06:02:35;7.10;;;4.60;;
61477;SDS011;47345;52.334;10.392;2022-11-15T06:05:06;7.40;;;5.70;;
61477;SDS011;47345;52.334;10.392;2022-11-15T06:07:36;8.60;;;5.40;;
61477;SDS011;47345;52.334;10.392;2022-11-15T06:10:08;7.60;;;4.80;;
61477;SDS011;47345;52.334;10.392;2022-11-15T06:12:39;6.10;;;4.40;;
61477;SDS011;47345;52.334;10.392;2022-11-15T06:15:09;5.40;;;4.20;;
61477;SDS011;47345;52.334;10.392;2022-11-15T06:17:40;5.70;;;3.90;;
61477;SDS011;47345;52.334;10.392;2022-11-15T06:20:12;5.70;;;3.90;;
61477;SDS011;47345;52.334;10.392;2022-11-15T06:22:42;6.50;;;4.30;;
61477;SDS011;47345;52.334;10.392;2022-11-15T06:25:13;5.50;;;3.90;;
61477;SDS011;47345;52.334;10.392;2022-11-15T06:27:44;5.30;;;4.00;;
61477;SDS011;47345;52.334;10.392;2022-11-15T06:30:19;5.60;;;4.20;;
61477;SDS011;47345;52.334;10.392;2022-11-15T06:32:50;6.50;;;4.80;;
61477;SDS011;47345;52.334;10.392;2022-11-15T06:35:20;5.70;;;4.30;;
61477;SDS011;47345;52.334;10.392;2022-11-15T06:37:51;7.00;;;4.40;;
61477;SDS011;47345;52.334;10.392;2022-11-15T06:40:22;5.80;;;3.80;;
61477;SDS011;47345;52.334;10.392;2022-11-15T06:42:52;4.80;;;3.70;;
61477;SDS011;47345;52.334;10.392;2022-11-15T06:45:28;4.90;;;3.20;;
61477;SDS011;47345;52.334;10.392;2022-11-15T06:47:59;6.10;;;3.50;;
61477;SDS011;47345;52.334;10.392;2022-11-15T06:50:29;4.70;;;3.60;;
61477;SDS011;47345;52.334;10.392;2022-11-15T06:53:03;5.30;;;3.50;;
61477;SDS011;47345;52.334;10.392;2022-11-15T06:55:34;5.70;;;3.70;;
61477;SDS011;47345;52.334;10.392;2022-11-15T06:58:05;4.60;;;3.40;;
61477;SDS011;47345;52.334;10.392;2022-11-15T07:00:36;4.80;;;3.60;;
61477;SDS011;47345;52.334;10.392;2022-11-15T07:03:07;5.20;;;3.80;;
61477;SDS011;47345;52.334;10.392;2022-11-15T07:05:37;5.60;;;3.70;;
61477;SDS011;47345;52.334;10.392;2022-11-15T07:08:08;5.20;;;3.70;;
61477;SDS011;47345;52.334;10.392;2022-11-15T07:10:39;6.00;;;4.10;;
61477;SDS011;47345;52.334;10.392;2022-11-15T07:13:09;6.80;;;4.70;;
61477;SDS011;47345;52.334;10.392;2022-11-15T07:15:40;7.70;;;4.60;;
61477;SDS011;47345;52.334;10.392;2022-11-15T07:18:11;7.20;;;4.80;;
61477;SDS011;47345;52.334;10.392;2022-11-15T07:20:41;6.40;;;4.90;;
61477;SDS011;47345;52.334;10.392;2022-11-15T07:23:12;8.20;;;4.90;;
61477;SDS011;47345;52.334;10.392;2022-11-15T07:25:43;8.90;;;5.20;;
61477;SDS011;47345;52.334;10.392;2022-11-15T07:28:14;7.10;;;4.60;;
61477;SDS011;47345;52.334;10.392;2022-11-15T07:30:45;7.70;;;4.60;;
61477;SDS011;47345;52.334;10.392;2022-11-15T07:33:15;7.20;;;5.20;;
61477;SDS011;47345;52.334;10.392;2022-11-15T07:35:46;7.10;;;4.70;;
61477;SDS011;47345;52.334;10.392;2022-11-15T07:38:19;9.40;;;4.40;;
61477;SDS011;47345;52.334;10.392;2022-11-15T07:40:56;6.60;;;4.80;;
61477;SDS011;47345;52.334;10.392;2022-11-15T07:43:28;6.40;;;4.60;;
61477;SDS011;47345;52.334;10.392;2022-11-15T07:46:05;9.30;;;5.00;;
61477;SDS011;47345;52.334;10.392;2022-11-15T07:48:37;7.20;;;4.80;;
61477;SDS011;47345;52.334;10.392;2022-11-15T07:51:12;8.60;;;5.20;;
61477;SDS011;47345;52.334;10.392;2022-11-15T07:53:43;6.30;;;4.70;;
61477;SDS011;47345;52.334;10.392;2022-11-15T07:56:13;6.20;;;4.70;;
61477;SDS011;47345;52.334;10.392;2022-11-15T07:58:44;6.70;;;4.40;;
61477;SDS011;47345;52.334;10.392;2022-11-15T08:01:15;6.60;;;4.60;;
61477;SDS011;47345;52.334;10.392;2022-11-15T08:03:46;8.40;;;5.10;;
61477;SDS011;47345;52.334;10.392;2022-11-15T08:06:17;5.70;;;4.10;;
61477;SDS011;47345;52.334;10.392;2022-11-15T08:08:47;8.40;;;5.20;;
61477;SDS011;47345;52.334;10.392;2022-11-15T08:11:18;5.70;;;4.60;;
61477;SDS011;47345;52.334;10.392;2022-11-15T08:13:49;8.70;;;4.80;;
61477;SDS011;47345;52.334;10.392;2022-11-15T08:16:19;7.80;;;4.80;;
61477;SDS011;47345;52.334;10.392;2022-11-15T08:18:50;6.80;;;4.60;;
61477;SDS011;47345;52.334;10.392;2022-11-15T08:21:20;9.30;;;5.30;;
61477;SDS011;47345;52.334;10.392;2022-11-15T08:23:51;9.50;;;4.50;;
61477;SDS011;47345;52.334;10.392;2022-11-15T08:26:22;8.20;;;5.20;;
61477;SDS011;47345;52.334;10.392;2022-11-15T08:28:56;8.10;;;5.50;;
61477;SDS011;47345;52.334;10.392;2022-11-15T08:31:27;8.70;;;5.40;;
61477;SDS011;47345;52.334;10.392;2022-11-15T08:33:57;8.90;;;5.50;;
61477;SDS011;47345;52.334;10.392;2022-11-15T08:36:29;8.30;;;4.70;;
61477;SDS011;47345;52.334;10.392;2022-11-15T08:39:11;5.90;;;4.30;;
61477;SDS011;47345;52.334;10.392;2022-11-15T08:41:42;6.50;;;4.90;;
61477;SDS011;47345;52.334;10.392;2022-11-15T08:44:13;5.90;;;4.30;;
61477;SDS011;47345;52.334;10.392;2022-11-15T08:46:43;5.60;;;4.00;;
61477;SDS011;47345;52.334;10.392;2022-11-15T08:49:15;6.70;;;4.40;;
61477;SDS011;47345;52.334;10.392;2022-11-15T08:51:46;8.50;;;4.90;;
61477;SDS011;47345;52.334;10.392;2022-11-15T08:54:16;7.40;;;5.20;;
61477;SDS011;47345;52.334;10.392;2022-11-15T08:56:47;6.40;;;4.50;;
61477;SDS011;47345;52.334;10.392;2022-11-15T08:59:17;6.60;;;4.40;;
61477;SDS011;47345;52.334;10.392;2022-11-15T09:01:48;7.60;;;4.80;;
61477;SDS011;47345;52.334;10.392;2022-11-15T09:04:19;6.60;;;4.90;;
61477;SDS011;47345;52.334;10.392;2022-11-15T09:06:50;6.30;;;4.50;;
61477;SDS011;47345;52.334;10.392;2022-11-15T09:09:21;7.30;;;5.00;;
61477;SDS011;47345;52.334;10.392;2022-11-15T09:11:51;7.40;;;5.10;;
61477;SDS011;47345;52.334;10.392;2022-11-15T09:14:29;4.70;;;3.90;;
61477;SDS011;47345;52.334;10.392;2022-11-15T09:17:00;7.20;;;4.50;;
61477;SDS011;47345;52.334;10.392;2022-11-15T09:19:31;5.00;;;3.70;;
61477;SDS011;47345;52.334;10.392;2022-11-15T09:22:01;5.70;;;3.70;;
61477;SDS011;47345;52.334;10.392;2022-11-15T09:24:33;6.00;;;4.00;;
61477;SDS011;47345;52.334;10.392;2022-11-15T09:27:04;5.90;;;3.90;;
61477;SDS011;47345;52.334;10.392;2022-11-15T09:29:34;6.70;;;4.40;;
61477;SDS011;47345;52.334;10.392;2022-11-15T09:32:05;6.80;;;4.00;;
61477;SDS011;47345;52.334;10.392;2022-11-15T09:34:36;6.10;;;4.10;;
61477;SDS011;47345;52.334;10.392;2022-11-15T09:37:06;5.50;;;3.80;;
61477;SDS011;47345;52.334;10.392;2022-11-15T09:39:37;5.90;;;3.70;;
61477;SDS011;47345;52.334;10.392;2022-11-15T09:42:12;5.40;;;3.70;;
61477;SDS011;47345;52.334;10.392;2022-11-15T09:44:59;6.10;;;4.10;;
61477;SDS011;47345;52.334;10.392;2022-11-15T09:47:40;6.00;;;4.20;;
61477;SDS011;47345;52.334;10.392;2022-11-15T09:50:28;5.10;;;3.80;;
61477;SDS011;47345;52.334;10.392;2022-11-15T09:53:04;6.40;;;4.00;;
61477;SDS011;47345;52.334;10.392;2022-11-15T09:55:40;5.20;;;3.60;;
61477;SDS011;47345;52.334;10.392;2022-11-15T09:58:19;5.80;;;4.30;;
61477;SDS011;47345;52.334;10.392;2022-11-15T10:00:56;6.20;;;4.30;;
61477;SDS011;47345;52.334;10.392;2022-11-15T10:03:34;5.70;;;4.20;;
61477;SDS011;47345;52.334;10.392;2022-11-15T10:06:21;6.80;;;4.20;;
61477;SDS011;47345;52.334;10.392;2022-11-15T10:08:57;6.20;;;4.10;;
61477;SDS011;47345;52.334;10.392;2022-11-15T10:11:35;6.40;;;4.40;;
61477;SDS011;47345;52.334;10.392;2022-11-15T10:14:10;5.90;;;4.00;;
61477;SDS011;47345;52.334;10.392;2022-11-15T10:19:41;6.10;;;3.70;;
61477;SDS011;47345;52.334;10.392;2022-11-15T10:22:24;5.60;;;3.40;;
61477;SDS011;47345;52.334;10.392;2022-11-15T10:25:12;5.30;;;3.80;;
61477;SDS011;47345;52.334;10.392;2022-11-15T10:27:53;5.30;;;3.60;;
61477;SDS011;47345;52.334;10.392;2022-11-15T10:30:32;3.50;;;3.20;;
61477;SDS011;47345;52.334;10.392;2022-11-15T10:33:16;4.50;;;3.00;;
61477;SDS011;47345;52.334;10.392;2022-11-15T10:38:54;4.90;;;3.20;;
61477;SDS011;47345;52.334;10.392;2022-11-15T10:41:34;4.90;;;3.10;;
61477;SDS011;47345;52.334;10.392;2022-11-15T10:44:12;5.10;;;3.40;;
61477;SDS011;47345;52.334;10.392;2022-11-15T10:47:03;4.00;;;3.00;;
61477;SDS011;47345;52.334;10.392;2022-11-15T10:50:07;5.10;;;3.20;;
61477;SDS011;47345;52.334;10.392;2022-11-15T10:52:57;5.00;;;3.20;;
61477;SDS011;47345;52.334;10.392;2022-11-15T10:55:30;3.50;;;3.00;;
61477;SDS011;47345;52.334;10.392;2022-11-15T10:58:03;4.10;;;3.20;;
61477;SDS011;47345;52.334;10.392;2022-11-15T11:00:48;4.90;;;3.40;;
61477;SDS011;47345;52.334;10.392;2022-11-15T11:03:26;4.70;;;3.20;;
61477;SDS011;47345;52.334;10.392;2022-11-15T11:06:07;3.60;;;2.80;;
61477;SDS011;47345;52.334;10.392;2022-11-15T11:08:40;3.90;;;3.10;;
61477;SDS011;47345;52.334;10.392;2022-11-15T11:11:21;4.50;;;3.20;;
61477;SDS011;47345;52.334;10.392;2022-11-15T11:13:52;4.00;;;2.90;;
61477;SDS011;47345;52.334;10.392;2022-11-15T11:16:36;5.00;;;3.30;;
61477;SDS011;47345;52.334;10.392;2022-11-15T11:19:20;3.90;;;3.00;;
61477;SDS011;47345;52.334;10.392;2022-11-15T11:22:09;4.00;;;2.90;;
61477;SDS011;47345;52.334;10.392;2022-11-15T11:24:47;5.70;;;3.40;;
61477;SDS011;47345;52.334;10.392;2022-11-15T11:27:29;6.20;;;4.00;;
61477;SDS011;47345;52.334;10.392;2022-11-15T11:30:17;6.30;;;4.10;;
61477;SDS011;47345;52.334;10.392;2022-11-15T11:33:05;5.80;;;3.70;;
61477;SDS011;47345;52.334;10.392;2022-11-15T11:35:45;5.20;;;3.30;;
61477;SDS011;47345;52.334;10.392;2022-11-15T11:38:34;5.10;;;3.30;;
61477;SDS011;47345;52.334;10.392;2022-11-15T11:41:18;5.80;;;3.30;;
61477;SDS011;47345;52.334;10.392;2022-11-15T11:44:02;4.30;;;3.10;;
61477;SDS011;47345;52.334;10.392;2022-11-15T11:46:50;4.10;;;2.80;;
61477;SDS011;47345;52.334;10.392;2022-11-15T11:49:26;4.00;;;2.90;;
61477;SDS011;47345;52.334;10.392;2022-11-15T11:52:06;4.90;;;3.30;;
61477;SDS011;47345;52.334;10.392;2022-11-15T11:54:45;8.90;;;3.00;;
61477;SDS011;47345;52.334;10.392;2022-11-15T11:57:25;5.70;;;3.70;;
61477;SDS011;47345;52.334;10.392;2022-11-15T12:00:04;5.40;;;3.50;;
61477;SDS011;47345;52.334;10.392;2022-11-15T12:02:46;4.30;;;3.10;;
61477;SDS011;47345;52.334;10.392;2022-11-15T12:05:30;6.20;;;3.70;;
61477;SDS011;47345;52.334;10.392;2022-11-15T12:08:09;7.80;;;3.60;;
61477;SDS011;47345;52.334;10.392;2022-11-15T12:10:50;5.90;;;4.00;;
61477;SDS011;47345;52.334;10.392;2022-11-15T12:13:32;9.60;;;3.40;;
61477;SDS011;47345;52.334;10.392;2022-11-15T12:16:06;5.20;;;3.50;;
61477;SDS011;47345;52.334;10.392;2022-11-15T12:18:41;5.10;;;3.30;;
61477;SDS011;47345;52.334;10.392;2022-11-15T12:21:15;4.30;;;3.10;;
61477;SDS011;47345;52.334;10.392;2022-11-15T12:24:03;6.60;;;3.80;;
61477;SDS011;47345;52.334;10.392;2022-11-15T12:26:37;5.80;;;3.60;;
61477;SDS011;47345;52.334;10.392;2022-11-15T12:29:16;4.00;;;3.00;;
61477;SDS011;47345;52.334;10.392;2022-11-15T12:31:55;5.40;;;3.80;;
61477;SDS011;47345;52.334;10.392;2022-11-15T12:34:41;5.40;;;3.80;;
61477;SDS011;47345;52.334;10.392;2022-11-15T12:40:22;5.00;;;3.20;;
61477;SDS011;47345;52.334;10.392;2022-11-15T12:42:59;4.30;;;3.00;;
61477;SDS011;47345;52.334;10.392;2022-11-15T12:45:56;4.00;;;2.90;;
61477;SDS011;47345;52.334;10.392;2022-11-15T12:57:31;3.30;;;2.40;;
61477;SDS011;47345;52.334;10.392;2022-11-15T13:03:19;5.00;;;3.50;;
61477;SDS011;47345;52.334;10.392;2022-11-15T13:05:57;4.80;;;3.10;;
61477;SDS011;47345;52.334;10.392;2022-11-15T13:08:37;4.80;;;3.60;;
61477;SDS011;47345;52.334;10.392;2022-11-15T13:17:32;6.10;;;3.70;;
61477;SDS011;47345;52.334;10.392;2022-11-15T13:20:20;7.00;;;4.20;;
61477;SDS011;47345;52.334;10.392;2022-11-15T13:23:00;4.70;;;3.30;;
61477;SDS011;47345;52.334;10.392;2022-11-15T13:25:51;5.70;;;3.20;;
61477;SDS011;47345;52.334;10.392;2022-11-15T13:28:38;6.20;;;3.50;;
61477;SDS011;47345;52.334;10.392;2022-11-15T13:34:16;6.90;;;4.20;;
61477;SDS011;47345;52.334;10.392;2022-11-15T13:37:15;5.50;;;3.50;;
61477;SDS011;47345;52.334;10.392;2022-11-15T13:42:52;4.60;;;3.20;;
61477;SDS011;47345;52.334;10.392;2022-11-15T13:45:23;5.50;;;3.40;;
61477;SDS011;47345;52.334;10.392;2022-11-15T13:47:57;6.20;;;4.00;;
61477;SDS011;47345;52.334;10.392;2022-11-15T13:50:32;6.60;;;4.00;;
61477;SDS011;47345;52.334;10.392;2022-11-15T13:53:06;4.70;;;3.30;;
61477;SDS011;47345;52.334;10.392;2022-11-15T13:55:38;4.80;;;3.20;;
61477;SDS011;47345;52.334;10.392;2022-11-15T13:58:10;5.10;;;3.50;;
61477;SDS011;47345;52.334;10.392;2022-11-15T14:00:41;6.20;;;3.70;;
61477;SDS011;47345;52.334;10.392;2022-11-15T14:03:15;4.50;;;3.20;;
61477;SDS011;47345;52.334;10.392;2022-11-15T14:05:47;5.40;;;3.60;;
61477;SDS011;47345;52.334;10.392;2022-11-15T14:08:35;7.00;;;4.10;;
61477;SDS011;47345;52.334;10.392;2022-11-15T14:11:11;7.10;;;4.30;;
61477;SDS011;47345;52.334;10.392;2022-11-15T14:16:51;8.80;;;3.90;;
61477;SDS011;47345;52.334;10.392;2022-11-15T14:19:39;4.90;;;3.50;;
61477;SDS011;47345;52.334;10.392;2022-11-15T14:22:17;5.60;;;3.50;;
61477;SDS011;47345;52.334;10.392;2022-11-15T14:33:21;5.70;;;3.90;;
61477;SDS011;47345;52.334;10.392;2022-11-15T14:35:57;7.20;;;3.80;;
61477;SDS011;47345;52.334;10.392;2022-11-15T14:38:32;5.90;;;3.90;;
61477;SDS011;47345;52.334;10.392;2022-11-15T14:41:03;5.00;;;3.40;;
61477;SDS011;47345;52.334;10.392;2022-11-15T14:43:34;5.10;;;3.60;;
61477;SDS011;47345;52.334;10.392;2022-11-15T14:46:05;6.70;;;3.80;;
61477;SDS011;47345;52.334;10.392;2022-11-15T14:48:35;9.30;;;3.70;;
61477;SDS011;47345;52.334;10.392;2022-11-15T14:51:10;7.10;;;4.20;;
61477;SDS011;47345;52.334;10.392;2022-11-15T14:53:44;11.50;;;4.10;;
61477;SDS011;47345;52.334;10.392;2022-11-15T14:56:15;5.70;;;3.70;;
61477;SDS011;47345;52.334;10.392;2022-11-15T14:58:46;10.20;;;4.70;;
61477;SDS011;47345;52.334;10.392;2022-11-15T15:01:18;7.70;;;5.10;;
61477;SDS011;47345;52.334;10.392;2022-11-15T15:03:50;6.20;;;4.50;;
61477;SDS011;47345;52.334;10.392;2022-11-15T15:06:24;8.90;;;4.90;;
61477;SDS011;47345;52.334;10.392;2022-11-15T15:08:55;6.70;;;3.90;;
61477;SDS011;47345;52.334;10.392;2022-11-15T15:11:26;4.30;;;3.10;;
61477;SDS011;47345;52.334;10.392;2022-11-15T15:13:59;4.50;;;3.00;;
61477;SDS011;47345;52.334;10.392;2022-11-15T15:16:30;7.00;;;3.70;;
61477;SDS011;47345;52.334;10.392;2022-11-15T15:19:00;5.30;;;3.30;;
61477;SDS011;47345;52.334;10.392;2022-11-15T15:21:31;7.40;;;4.60;;
61477;SDS011;47345;52.334;10.392;2022-11-15T15:24:04;5.10;;;3.70;;
61477;SDS011;47345;52.334;10.392;2022-11-15T15:29:11;11.60;;;4.70;;
61477;SDS011;47345;52.334;10.392;2022-11-15T15:31:42;7.40;;;4.90;;
61477;SDS011;47345;52.334;10.392;2022-11-15T15:34:13;7.70;;;4.10;;
61477;SDS011;47345;52.334;10.392;2022-11-15T15:36:44;7.90;;;4.60;;
61477;SDS011;47345;52.334;10.392;2022-11-15T15:39:15;8.20;;;4.40;;
61477;SDS011;47345;52.334;10.392;2022-11-15T15:41:45;7.90;;;4.50;;
61477;SDS011;47345;52.334;10.392;2022-11-15T15:44:23;11.30;;;6.00;;
61477;SDS011;47345;52.334;10.392;2022-11-15T15:46:54;6.60;;;4.40;;
61477;SDS011;47345;52.334;10.392;2022-11-15T15:49:26;7.80;;;4.80;;
61477;SDS011;47345;52.334;10.392;2022-11-15T15:51:56;7.80;;;4.90;;
61477;SDS011;47345;52.334;10.392;2022-11-15T15:54:27;14.60;;;7.20;;
61477;SDS011;47345;52.334;10.392;2022-11-15T15:56:57;11.20;;;6.30;;
61477;SDS011;47345;52.334;10.392;2022-11-15T15:59:28;12.30;;;4.70;;
61477;SDS011;47345;52.334;10.392;2022-11-15T16:01:59;6.60;;;4.00;;
61477;SDS011;47345;52.334;10.392;2022-11-15T16:04:30;6.00;;;3.80;;
61477;SDS011;47345;52.334;10.392;2022-11-15T16:07:00;6.30;;;4.50;;
61477;SDS011;47345;52.334;10.392;2022-11-15T16:09:32;6.60;;;4.00;;
61477;SDS011;47345;52.334;10.392;2022-11-15T16:12:20;9.50;;;4.80;;